sensor_id;sensor_type;location;lat;lon;timestamp;temperature;humidity
1091;DHT22;534;48.704;9.122;2023-04-15T04:01:12;7.90;70.30
1091;DHT22;534;48.704;9.122;2023-04-15T04:03:39;7.90;70.50
1091;DHT22;534;48.704;9.122;2023-04-15T04:06:06;7.80;70.40
1091;DHT22;534;48.704;9.122;2023-04-15T04:08:32;7.80;70.40
1091;DHT22;534;48.704;9.122;2023-04-15T04:10:59;7.80;70.50
1091;DHT22;534;48.704;9.122;2023-04-15T04:13:26;7.80;70.50
1091;DHT22;534;48.704;9.122;2023-04-15T04:15:53;7.90;70.50
1091;DHT22;534;48.704;9.122;2023-04-15T04:18:21;8.00;70.10
1091;DHT22;534;48.704;9.122;2023-04-15T04:20:47;8.10;70.10
1091;DHT22;534;48.704;9.122;2023-04-15T04:23:14;8.10;69.70
1091;DHT22;534;48.704;9.122;2023-04-15T04:25:41;8.00;69.70
1091;DHT22;534;48.704;9.122;2023-04-15T04:28:08;8.00;69.60
1091;DHT22;534;48.704;9.122;2023-04-15T04:30:36;8.00;69.50
1091;DHT22;534;48.704;9.122;2023-04-15T04:33:02;8.10;69.40
1091;DHT22;534;48.704;9.122;2023-04-15T04:35:30;8.00;69.50
1091;DHT22;534;48.704;9.122;2023-04-15T04:37:59;8.00;69.50
1091;DHT22;534;48.704;9.122;2023-04-15T04:40:26;8.10;69.40
1091;DHT22;534;48.704;9.122;2023-04-15T04:42:53;8.00;69.60
1091;DHT22;534;48.704;9.122;2023-04-15T04:45:19;8.00;69.60
1091;DHT22;534;48.704;9.122;2023-04-15T04:47:46;8.00;69.60
1091;DHT22;534;48.704;9.122;2023-04-15T04:50:13;8.10;69.50
1091;DHT22;534;48.704;9.122;2023-04-15T04:52:41;8.20;69.40
1091;DHT22;534;48.704;9.122;2023-04-15T04:55:08;8.20;69.20
1091;DHT22;534;48.704;9.122;2023-04-15T04:57:35;8.20;69.20
1091;DHT22;534;48.704;9.122;2023-04-15T05:00:02;8.30;69.10
1091;DHT22;534;48.704;9.122;2023-04-15T05:02:29;8.30;69.00
1091;DHT22;534;48.704;9.122;2023-04-15T05:04:56;8.00;68.70
1091;DHT22;534;48.704;9.122;2023-04-15T05:07:23;8.00;68.70
1091;DHT22;534;48.704;9.122;2023-04-15T05:09:51;7.80;68.80
1091;DHT22;534;48.704;9.122;2023-04-15T05:12:18;7.60;69.50
1091;DHT22;534;48.704;9.122;2023-04-15T05:14:45;7.40;69.90
1091;DHT22;534;48.704;9.122;2023-04-15T05:17:12;7.20;70.30
1091;DHT22;534;48.704;9.122;2023-04-15T05:19:38;7.10;71.00
1091;DHT22;534;48.704;9.122;2023-04-15T05:22:05;7.00;71.20
1091;DHT22;534;48.704;9.122;2023-04-15T05:24:32;6.90;71.90
1091;DHT22;534;48.704;9.122;2023-04-15T05:27:00;7.00;72.00
1091;DHT22;534;48.704;9.122;2023-04-15T05:29:27;7.10;72.20
1091;DHT22;534;48.704;9.122;2023-04-15T05:31:53;7.10;72.50
1091;DHT22;534;48.704;9.122;2023-04-15T05:34:21;7.10;72.40
1091;DHT22;534;48.704;9.122;2023-04-15T05:36:47;7.00;72.90
1091;DHT22;534;48.704;9.122;2023-04-15T05:39:14;7.00;73.10
1091;DHT22;534;48.704;9.122;2023-04-15T05:41:41;7.00;73.60
1091;DHT22;534;48.704;9.122;2023-04-15T05:44:09;7.00;73.70
1091;DHT22;534;48.704;9.122;2023-04-15T05:46:36;7.10;73.90
1091;DHT22;534;48.704;9.122;2023-04-15T05:49:02;7.10;73.60
1091;DHT22;534;48.704;9.122;2023-04-15T05:51:29;7.10;73.80
1091;DHT22;534;48.704;9.122;2023-04-15T05:53:56;7.20;74.10
1091;DHT22;534;48.704;9.122;2023-04-15T05:56:22;7.40;73.60
1091;DHT22;534;48.704;9.122;2023-04-15T05:58:51;7.60;73.50
1091;DHT22;534;48.704;9.122;2023-04-15T06:01:19;8.00;73.10
1091;DHT22;534;48.704;9.122;2023-04-15T06:03:46;8.30;72.50
1091;DHT22;534;48.704;9.122;2023-04-15T06:06:13;8.60;71.90
1091;DHT22;534;48.704;9.122;2023-04-15T06:08:40;9.00;69.70
1091;DHT22;534;48.704;9.122;2023-04-15T06:11:07;9.40;68.50
1091;DHT22;534;48.704;9.122;2023-04-15T06:13:33;9.80;67.70
1091;DHT22;534;48.704;9.122;2023-04-15T06:16:00;10.10;65.40
1091;DHT22;534;48.704;9.122;2023-04-15T06:18:28;10.40;64.90
1091;DHT22;534;48.704;9.122;2023-04-15T06:20:55;10.70;64.20
1091;DHT22;534;48.704;9.122;2023-04-15T06:23:21;11.00;63.30
1091;DHT22;534;48.704;9.122;2023-04-15T06:25:48;11.30;62.70
1091;DHT22;534;48.704;9.122;2023-04-15T06:28:15;11.80;61.40
1091;DHT22;534;48.704;9.122;2023-04-15T06:30:41;12.20;60.40
1091;DHT22;534;48.704;9.122;2023-04-15T06:33:08;12.70;59.60
1091;DHT22;534;48.704;9.122;2023-04-15T06:35:36;13.00;58.20
1091;DHT22;534;48.704;9.122;2023-04-15T06:38:03;13.40;57.30
1091;DHT22;534;48.704;9.122;2023-04-15T06:40:30;13.70;56.40
1091;DHT22;534;48.704;9.122;2023-04-15T06:42:57;13.90;55.80
1091;DHT22;534;48.704;9.122;2023-04-15T06:45:24;14.40;55.90
1091;DHT22;534;48.704;9.122;2023-04-15T06:47:51;14.90;53.60
1091;DHT22;534;48.704;9.122;2023-04-15T06:50:17;15.30;52.50
1091;DHT22;534;48.704;9.122;2023-04-15T06:52:45;15.60;52.30
1091;DHT22;534;48.704;9.122;2023-04-15T06:55:12;15.70;51.10
1091;DHT22;534;48.704;9.122;2023-04-15T06:57:39;15.80;50.80
1091;DHT22;534;48.704;9.122;2023-04-15T07:00:06;15.70;51.20
1091;DHT22;534;48.704;9.122;2023-04-15T07:02:35;15.60;50.80
1091;DHT22;534;48.704;9.122;2023-04-15T07:05:02;15.40;51.40
1091;DHT22;534;48.704;9.122;2023-04-15T07:07:29;15.20;52.40
1091;DHT22;534;48.704;9.122;2023-04-15T07:09:57;15.30;51.70
1091;DHT22;534;48.704;9.122;2023-04-15T07:12:25;15.10;53.80
1091;DHT22;534;48.704;9.122;2023-04-15T07:14:51;14.70;55.00
1091;DHT22;534;48.704;9.122;2023-04-15T07:17:18;14.10;57.10
1091;DHT22;534;48.704;9.122;2023-04-15T07:19:45;13.40;58.00
1091;DHT22;534;48.704;9.122;2023-04-15T07:22:12;12.90;59.30
1091;DHT22;534;48.704;9.122;2023-04-15T07:24:38;12.80;61.70
1091;DHT22;534;48.704;9.122;2023-04-15T07:27:06;12.60;62.50
1091;DHT22;534;48.704;9.122;2023-04-15T07:29:33;12.70;62.90
1091;DHT22;534;48.704;9.122;2023-04-15T07:32:00;12.70;63.30
1091;DHT22;534;48.704;9.122;2023-04-15T07:34:26;12.50;64.50
1091;DHT22;534;48.704;9.122;2023-04-15T07:36:53;12.30;65.70
1091;DHT22;534;48.704;9.122;2023-04-15T07:39:19;12.20;66.70
1091;DHT22;534;48.704;9.122;2023-04-15T07:41:46;12.20;66.90
1091;DHT22;534;48.704;9.122;2023-04-15T07:44:15;12.20;67.70
1091;DHT22;534;48.704;9.122;2023-04-15T07:46:41;12.50;66.00
1091;DHT22;534;48.704;9.122;2023-04-15T07:49:08;12.70;66.10
1091;DHT22;534;48.704;9.122;2023-04-15T07:51:34;12.90;65.20
1091;DHT22;534;48.704;9.122;2023-04-15T07:54:01;13.10;63.90
1091;DHT22;534;48.704;9.122;2023-04-15T07:56:28;13.30;63.90
1091;DHT22;534;48.704;9.122;2023-04-15T07:58:55;13.70;62.80
1091;DHT22;534;48.704;9.122;2023-04-15T08:01:23;13.90;63.00
1091;DHT22;534;48.704;9.122;2023-04-15T08:03:50;14.30;64.60
1091;DHT22;534;48.704;9.122;2023-04-15T08:06:17;14.50;63.30
1091;DHT22;534;48.704;9.122;2023-04-15T08:08:43;14.50;62.40
1091;DHT22;534;48.704;9.122;2023-04-15T08:11:10;14.80;62.10
1091;DHT22;534;48.704;9.122;2023-04-15T08:13:37;14.80;62.60
1091;DHT22;534;48.704;9.122;2023-04-15T08:16:17;14.70;62.20
1091;DHT22;534;48.704;9.122;2023-04-15T08:18:47;14.60;62.60
1091;DHT22;534;48.704;9.122;2023-04-15T08:21:14;14.60;62.30
1091;DHT22;534;48.704;9.122;2023-04-15T08:23:41;14.40;60.20
1091;DHT22;534;48.704;9.122;2023-04-15T08:26:08;14.30;61.40
1091;DHT22;534;48.704;9.122;2023-04-15T08:28:36;14.40;61.40
1091;DHT22;534;48.704;9.122;2023-04-15T08:31:03;14.30;62.90
1091;DHT22;534;48.704;9.122;2023-04-15T08:33:30;14.20;62.50
1091;DHT22;534;48.704;9.122;2023-04-15T08:35:58;14.40;63.00
1091;DHT22;534;48.704;9.122;2023-04-15T08:38:25;14.70;61.80
1091;DHT22;534;48.704;9.122;2023-04-15T08:40:52;14.40;62.80
1091;DHT22;534;48.704;9.122;2023-04-15T08:43:21;14.40;63.90
1091;DHT22;534;48.704;9.122;2023-04-15T08:45:49;14.50;62.80
1091;DHT22;534;48.704;9.122;2023-04-15T08:48:17;14.70;62.30
1091;DHT22;534;48.704;9.122;2023-04-15T08:50:44;14.60;62.00
1091;DHT22;534;48.704;9.122;2023-04-15T08:53:14;14.70;61.10
1091;DHT22;534;48.704;9.122;2023-04-15T08:55:42;14.80;61.20
1091;DHT22;534;48.704;9.122;2023-04-15T08:58:10;15.00;60.20
1091;DHT22;534;48.704;9.122;2023-04-15T09:00:37;15.10;60.90
1091;DHT22;534;48.704;9.122;2023-04-15T09:03:04;15.20;59.90
1091;DHT22;534;48.704;9.122;2023-04-15T09:05:32;15.40;59.60
1091;DHT22;534;48.704;9.122;2023-04-15T09:07:58;15.70;55.50
1091;DHT22;534;48.704;9.122;2023-04-15T09:10:27;15.70;55.90
1091;DHT22;534;48.704;9.122;2023-04-15T09:12:54;15.70;55.70
1091;DHT22;534;48.704;9.122;2023-04-15T09:15:21;16.00;54.70
1091;DHT22;534;48.704;9.122;2023-04-15T09:17:50;16.30;52.70
1091;DHT22;534;48.704;9.122;2023-04-15T09:20:17;16.60;51.50
1091;DHT22;534;48.704;9.122;2023-04-15T09:22:45;16.90;51.50
1091;DHT22;534;48.704;9.122;2023-04-15T09:25:26;16.80;50.60
1091;DHT22;534;48.704;9.122;2023-04-15T09:27:55;16.60;51.50
1091;DHT22;534;48.704;9.122;2023-04-15T09:30:22;16.90;50.30
1091;DHT22;534;48.704;9.122;2023-04-15T09:32:49;17.10;49.30
1091;DHT22;534;48.704;9.122;2023-04-15T09:35:16;17.30;49.80
1091;DHT22;534;48.704;9.122;2023-04-15T09:37:43;17.50;49.90
1091;DHT22;534;48.704;9.122;2023-04-15T09:40:11;17.50;48.40
1091;DHT22;534;48.704;9.122;2023-04-15T09:42:53;17.70;49.50
1091;DHT22;534;48.704;9.122;2023-04-15T09:45:21;17.60;48.20
1091;DHT22;534;48.704;9.122;2023-04-15T09:47:48;17.40;48.80
1091;DHT22;534;48.704;9.122;2023-04-15T09:50:17;17.50;48.20
1091;DHT22;534;48.704;9.122;2023-04-15T09:52:44;17.50;47.10
1091;DHT22;534;48.704;9.122;2023-04-15T09:55:12;17.50;47.00
1091;DHT22;534;48.704;9.122;2023-04-15T09:57:41;17.30;47.70
1091;DHT22;534;48.704;9.122;2023-04-15T10:00:09;17.40;47.60
1091;DHT22;534;48.704;9.122;2023-04-15T10:02:36;17.40;47.40
1091;DHT22;534;48.704;9.122;2023-04-15T10:05:03;17.40;46.00
1091;DHT22;534;48.704;9.122;2023-04-15T10:07:31;17.20;48.30
1091;DHT22;534;48.704;9.122;2023-04-15T10:09:59;17.30;47.10
1091;DHT22;534;48.704;9.122;2023-04-15T10:12:26;17.40;47.30
1091;DHT22;534;48.704;9.122;2023-04-15T10:14:57;17.40;47.70
1091;DHT22;534;48.704;9.122;2023-04-15T10:17:26;17.40;46.90
1091;DHT22;534;48.704;9.122;2023-04-15T10:19:54;17.10;47.80
1091;DHT22;534;48.704;9.122;2023-04-15T10:22:21;16.80;46.70
1091;DHT22;534;48.704;9.122;2023-04-15T10:24:49;16.60;46.20
1091;DHT22;534;48.704;9.122;2023-04-15T10:27:17;16.50;46.50
1091;DHT22;534;48.704;9.122;2023-04-15T10:29:44;16.40;47.60
1091;DHT22;534;48.704;9.122;2023-04-15T10:32:13;16.30;47.90
1091;DHT22;534;48.704;9.122;2023-04-15T10:34:41;16.20;48.40
1091;DHT22;534;48.704;9.122;2023-04-15T10:37:09;16.30;50.60
1091;DHT22;534;48.704;9.122;2023-04-15T10:39:43;16.40;49.30
1091;DHT22;534;48.704;9.122;2023-04-15T10:42:11;16.50;48.90
1091;DHT22;534;48.704;9.122;2023-04-15T10:44:38;16.30;47.50
1091;DHT22;534;48.704;9.122;2023-04-15T10:47:13;16.20;48.00
1091;DHT22;534;48.704;9.122;2023-04-15T10:49:47;15.90;51.10
1091;DHT22;534;48.704;9.122;2023-04-15T10:52:15;16.20;50.30
1091;DHT22;534;48.704;9.122;2023-04-15T10:54:43;16.40;49.70
1091;DHT22;534;48.704;9.122;2023-04-15T10:57:15;16.60;49.40
1091;DHT22;534;48.704;9.122;2023-04-15T11:00:02;16.80;49.60
1091;DHT22;534;48.704;9.122;2023-04-15T11:02:46;16.60;50.20
1091;DHT22;534;48.704;9.122;2023-04-15T11:05:13;16.60;49.50
1091;DHT22;534;48.704;9.122;2023-04-15T11:07:47;16.70;51.10
1091;DHT22;534;48.704;9.122;2023-04-15T11:13:25;17.00;51.30
1091;DHT22;534;48.704;9.122;2023-04-15T11:15:58;16.90;50.10
1091;DHT22;534;48.704;9.122;2023-04-15T11:18:28;16.60;51.80
1091;DHT22;534;48.704;9.122;2023-04-15T11:20:58;16.50;52.20
1091;DHT22;534;48.704;9.122;2023-04-15T11:23:32;16.50;51.30
1091;DHT22;534;48.704;9.122;2023-04-15T11:26:01;16.40;53.30
1091;DHT22;534;48.704;9.122;2023-04-15T11:28:31;16.50;52.50
1091;DHT22;534;48.704;9.122;2023-04-15T11:30:59;16.50;52.50
1091;DHT22;534;48.704;9.122;2023-04-15T11:33:32;16.50;52.40
1091;DHT22;534;48.704;9.122;2023-04-15T11:35:59;16.40;52.60
1091;DHT22;534;48.704;9.122;2023-04-15T11:38:26;16.40;53.40
1091;DHT22;534;48.704;9.122;2023-04-15T11:40:53;16.50;53.00
1091;DHT22;534;48.704;9.122;2023-04-15T11:43:21;16.80;50.80
1091;DHT22;534;48.704;9.122;2023-04-15T11:45:50;16.90;50.00
1091;DHT22;534;48.704;9.122;2023-04-15T11:48:18;17.20;49.50
1091;DHT22;534;48.704;9.122;2023-04-15T11:50:52;17.10;49.00
1091;DHT22;534;48.704;9.122;2023-04-15T11:53:19;17.00;49.50
1091;DHT22;534;48.704;9.122;2023-04-15T11:55:47;16.90;49.90
1091;DHT22;534;48.704;9.122;2023-04-15T11:58:16;16.70;51.30
1091;DHT22;534;48.704;9.122;2023-04-15T12:00:46;16.70;51.30
1091;DHT22;534;48.704;9.122;2023-04-15T12:03:16;16.70;50.40
1091;DHT22;534;48.704;9.122;2023-04-15T12:06:12;16.70;51.10
1091;DHT22;534;48.704;9.122;2023-04-15T12:08:51;17.00;49.60
1091;DHT22;534;48.704;9.122;2023-04-15T12:11:18;17.40;49.20
1091;DHT22;534;48.704;9.122;2023-04-15T12:13:46;17.60;49.80
1091;DHT22;534;48.704;9.122;2023-04-15T12:16:16;17.90;49.40
1091;DHT22;534;48.704;9.122;2023-04-15T12:18:44;17.80;45.60
1091;DHT22;534;48.704;9.122;2023-04-15T12:21:13;17.90;46.60
1091;DHT22;534;48.704;9.122;2023-04-15T12:23:47;17.90;44.70
1091;DHT22;534;48.704;9.122;2023-04-15T12:26:15;17.90;45.20
1091;DHT22;534;48.704;9.122;2023-04-15T12:28:41;17.90;47.20
1091;DHT22;534;48.704;9.122;2023-04-15T12:31:08;18.00;45.20
1091;DHT22;534;48.704;9.122;2023-04-15T12:33:35;18.20;45.30
1091;DHT22;534;48.704;9.122;2023-04-15T12:36:02;17.90;45.40
1091;DHT22;534;48.704;9.122;2023-04-15T12:38:31;17.70;47.40
1091;DHT22;534;48.704;9.122;2023-04-15T12:40:58;17.70;47.30
1091;DHT22;534;48.704;9.122;2023-04-15T12:43:24;17.50;46.90
1091;DHT22;534;48.704;9.122;2023-04-15T12:45:51;17.50;46.40
1091;DHT22;534;48.704;9.122;2023-04-15T12:48:18;17.20;48.00
1091;DHT22;534;48.704;9.122;2023-04-15T12:50:45;16.80;50.80
1091;DHT22;534;48.704;9.122;2023-04-15T12:53:11;16.60;51.80
1091;DHT22;534;48.704;9.122;2023-04-15T12:55:39;16.40;53.40
1091;DHT22;534;48.704;9.122;2023-04-15T12:58:06;16.20;54.40
1091;DHT22;534;48.704;9.122;2023-04-15T13:00:33;16.10;54.70
1091;DHT22;534;48.704;9.122;2023-04-15T13:03:00;15.80;55.90
1091;DHT22;534;48.704;9.122;2023-04-15T13:05:27;15.70;56.70
1091;DHT22;534;48.704;9.122;2023-04-15T13:07:53;15.40;57.10
1091;DHT22;534;48.704;9.122;2023-04-15T13:10:21;15.20;57.50
1091;DHT22;534;48.704;9.122;2023-04-15T13:12:49;15.10;58.50
1091;DHT22;534;48.704;9.122;2023-04-15T13:15:18;14.90;56.70
1091;DHT22;534;48.704;9.122;2023-04-15T13:17:45;14.80;56.80
1091;DHT22;534;48.704;9.122;2023-04-15T13:20:12;14.60;58.10
1091;DHT22;534;48.704;9.122;2023-04-15T13:22:39;14.40;58.20
1091;DHT22;534;48.704;9.122;2023-04-15T13:25:07;14.50;58.50
1091;DHT22;534;48.704;9.122;2023-04-15T13:27:34;14.50;57.80
1091;DHT22;534;48.704;9.122;2023-04-15T13:30:02;14.70;58.10
1091;DHT22;534;48.704;9.122;2023-04-15T13:32:29;14.60;57.40
1091;DHT22;534;48.704;9.122;2023-04-15T13:34:56;14.80;57.40
1091;DHT22;534;48.704;9.122;2023-04-15T13:37:25;14.80;56.80
1091;DHT22;534;48.704;9.122;2023-04-15T13:39:52;15.00;57.00
1091;DHT22;534;48.704;9.122;2023-04-15T13:42:19;15.10;55.40
1091;DHT22;534;48.704;9.122;2023-04-15T13:44:46;15.00;54.70
1091;DHT22;534;48.704;9.122;2023-04-15T13:47:14;14.90;55.00
1091;DHT22;534;48.704;9.122;2023-04-15T13:49:41;14.90;53.70
1091;DHT22;534;48.704;9.122;2023-04-15T13:52:07;14.70;53.80
1091;DHT22;534;48.704;9.122;2023-04-15T13:54:35;14.60;53.40
1091;DHT22;534;48.704;9.122;2023-04-15T13:57:02;14.50;53.40
1091;DHT22;534;48.704;9.122;2023-04-15T13:59:29;14.40;53.50
1091;DHT22;534;48.704;9.122;2023-04-15T14:01:55;14.30;54.70
1091;DHT22;534;48.704;9.122;2023-04-15T14:04:24;14.50;53.90
1091;DHT22;534;48.704;9.122;2023-04-15T14:06:50;14.60;54.00
1091;DHT22;534;48.704;9.122;2023-04-15T14:09:17;14.70;53.20
1091;DHT22;534;48.704;9.122;2023-04-15T14:11:44;14.70;52.60
1091;DHT22;534;48.704;9.122;2023-04-15T14:14:10;14.70;52.10
1091;DHT22;534;48.704;9.122;2023-04-15T14:16:37;14.90;51.90
1091;DHT22;534;48.704;9.122;2023-04-15T14:19:03;15.00;51.50
1091;DHT22;534;48.704;9.122;2023-04-15T14:21:31;14.90;51.80
1091;DHT22;534;48.704;9.122;2023-04-15T14:23:58;14.80;51.90
1091;DHT22;534;48.704;9.122;2023-04-15T14:26:26;14.60;47.90
1091;DHT22;534;48.704;9.122;2023-04-15T14:28:53;14.50;48.80
1091;DHT22;534;48.704;9.122;2023-04-15T14:31:19;14.30;48.50
1091;DHT22;534;48.704;9.122;2023-04-15T14:33:46;14.10;45.60
1091;DHT22;534;48.704;9.122;2023-04-15T14:36:13;13.90;45.20
1091;DHT22;534;48.704;9.122;2023-04-15T14:38:41;13.90;45.80
1091;DHT22;534;48.704;9.122;2023-04-15T14:41:08;13.90;45.70
1091;DHT22;534;48.704;9.122;2023-04-15T14:43:35;13.80;46.10
1091;DHT22;534;48.704;9.122;2023-04-15T14:46:01;13.80;47.10
1091;DHT22;534;48.704;9.122;2023-04-15T14:48:30;13.70;48.30
1091;DHT22;534;48.704;9.122;2023-04-15T14:50:58;13.80;48.70
1091;DHT22;534;48.704;9.122;2023-04-15T14:53:24;13.90;48.60
1091;DHT22;534;48.704;9.122;2023-04-15T14:55:52;13.80;48.40
1091;DHT22;534;48.704;9.122;2023-04-15T14:58:19;13.70;49.00
1091;DHT22;534;48.704;9.122;2023-04-15T15:00:46;13.60;50.00
1091;DHT22;534;48.704;9.122;2023-04-15T15:03:13;13.60;50.60
1091;DHT22;534;48.704;9.122;2023-04-15T15:05:41;13.50;51.40
1091;DHT22;534;48.704;9.122;2023-04-15T15:08:09;13.30;51.90
1091;DHT22;534;48.704;9.122;2023-04-15T15:10:36;13.10;52.40
1091;DHT22;534;48.704;9.122;2023-04-15T15:13:06;13.00;53.50
1091;DHT22;534;48.704;9.122;2023-04-15T15:15:34;12.90;53.90
1091;DHT22;534;48.704;9.122;2023-04-15T15:18:01;12.80;55.20
1091;DHT22;534;48.704;9.122;2023-04-15T15:20:28;12.90;55.30
1091;DHT22;534;48.704;9.122;2023-04-15T15:22:55;12.90;55.40
1091;DHT22;534;48.704;9.122;2023-04-15T15:25:22;12.90;55.90
1091;DHT22;534;48.704;9.122;2023-04-15T15:27:48;12.90;56.20
1091;DHT22;534;48.704;9.122;2023-04-15T15:30:16;12.90;56.80
1091;DHT22;534;48.704;9.122;2023-04-15T15:32:43;12.70;57.10
1091;DHT22;534;48.704;9.122;2023-04-15T15:35:10;12.70;58.10
1091;DHT22;534;48.704;9.122;2023-04-15T15:37:37;12.80;57.80
1091;DHT22;534;48.704;9.122;2023-04-15T15:40:05;12.70;57.80
1091;DHT22;534;48.704;9.122;2023-04-15T15:42:32;12.80;57.80
1091;DHT22;534;48.704;9.122;2023-04-15T15:44:59;12.80;57.80
1091;DHT22;534;48.704;9.122;2023-04-15T15:47:27;12.80;57.80
1091;DHT22;534;48.704;9.122;2023-04-15T15:49:54;12.80;57.80
1091;DHT22;534;48.704;9.122;2023-04-15T15:52:21;12.80;58.50
1091;DHT22;534;48.704;9.122;2023-04-15T15:54:48;12.80;59.10
1091;DHT22;534;48.704;9.122;2023-04-15T15:57:14;12.90;59.50
1091;DHT22;534;48.704;9.122;2023-04-15T15:59:41;12.90;60.00
1091;DHT22;534;48.704;9.122;2023-04-15T16:02:09;13.00;59.60
1091;DHT22;534;48.704;9.122;2023-04-15T16:04:37;13.10;59.10
1091;DHT22;534;48.704;9.122;2023-04-15T16:07:04;13.20;59.50
1091;DHT22;534;48.704;9.122;2023-04-15T16:09:31;13.00;60.20
1091;DHT22;534;48.704;9.122;2023-04-15T16:11:58;13.00;59.70
1091;DHT22;534;48.704;9.122;2023-04-15T16:14:25;13.00;58.60
1091;DHT22;534;48.704;9.122;2023-04-15T16:16:52;12.90;58.60
1091;DHT22;534;48.704;9.122;2023-04-15T16:19:19;12.90;58.10
1091;DHT22;534;48.704;9.122;2023-04-15T16:21:48;12.90;57.70
1091;DHT22;534;48.704;9.122;2023-04-15T16:24:14;12.90;58.10
1091;DHT22;534;48.704;9.122;2023-04-15T16:26:41;12.80;58.30
1091;DHT22;534;48.704;9.122;2023-04-15T16:29:07;12.90;58.90
1091;DHT22;534;48.704;9.122;2023-04-15T16:31:34;12.90;59.10
1091;DHT22;534;48.704;9.122;2023-04-15T16:34:03;12.80;59.60
1091;DHT22;534;48.704;9.122;2023-04-15T16:36:29;12.60;60.30
1091;DHT22;534;48.704;9.122;2023-04-15T16:38:58;12.40;62.40
1091;DHT22;534;48.704;9.122;2023-04-15T16:41:25;12.40;64.10
1091;DHT22;534;48.704;9.122;2023-04-15T16:43:51;12.50;65.00
1091;DHT22;534;48.704;9.122;2023-04-15T16:46:18;12.60;65.40
1091;DHT22;534;48.704;9.122;2023-04-15T16:48:45;12.70;67.20
1091;DHT22;534;48.704;9.122;2023-04-15T16:51:11;12.50;68.90
1091;DHT22;534;48.704;9.122;2023-04-15T16:53:38;12.50;69.90
1091;DHT22;534;48.704;9.122;2023-04-15T16:56:06;12.60;69.60
1091;DHT22;534;48.704;9.122;2023-04-15T16:58:33;12.50;70.50
1091;DHT22;534;48.704;9.122;2023-04-15T17:01:00;12.60;71.10
1091;DHT22;534;48.704;9.122;2023-04-15T17:03:26;12.60;71.10
1091;DHT22;534;48.704;9.122;2023-04-15T17:05:53;12.70;71.70
1091;DHT22;534;48.704;9.122;2023-04-15T17:08:20;12.70;71.70
1091;DHT22;534;48.704;9.122;2023-04-15T17:10:47;12.80;72.10
1091;DHT22;534;48.704;9.122;2023-04-15T17:13:17;12.70;72.50
1091;DHT22;534;48.704;9.122;2023-04-15T17:15:44;12.70;73.10
1091;DHT22;534;48.704;9.122;2023-04-15T17:18:10;12.60;73.60
1091;DHT22;534;48.704;9.122;2023-04-15T17:20:38;12.60;74.50
1091;DHT22;534;48.704;9.122;2023-04-15T17:23:04;12.50;74.50
1091;DHT22;534;48.704;9.122;2023-04-15T17:25:31;12.40;75.30
1091;DHT22;534;48.704;9.122;2023-04-15T17:27:58;12.10;76.50
1091;DHT22;534;48.704;9.122;2023-04-15T17:30:26;11.80;77.40
1091;DHT22;534;48.704;9.122;2023-04-15T17:32:52;11.80;77.90
1091;DHT22;534;48.704;9.122;2023-04-15T17:35:19;11.80;78.00
1091;DHT22;534;48.704;9.122;2023-04-15T17:37:47;11.90;78.10
1091;DHT22;534;48.704;9.122;2023-04-15T17:40:14;11.80;78.00
1091;DHT22;534;48.704;9.122;2023-04-15T17:42:41;11.60;78.30
1091;DHT22;534;48.704;9.122;2023-04-15T17:45:08;11.60;78.60
1091;DHT22;534;48.704;9.122;2023-04-15T17:47:36;11.50;78.80
1091;DHT22;534;48.704;9.122;2023-04-15T17:50:03;11.40;79.10
1091;DHT22;534;48.704;9.122;2023-04-15T17:52:30;11.40;79.50
1091;DHT22;534;48.704;9.122;2023-04-15T17:54:57;11.40;79.40
1091;DHT22;534;48.704;9.122;2023-04-15T17:57:23;11.40;79.50
1091;DHT22;534;48.704;9.122;2023-04-15T17:59:50;11.40;79.60
1091;DHT22;534;48.704;9.122;2023-04-15T18:02:17;11.40;79.80
1091;DHT22;534;48.704;9.122;2023-04-15T18:04:45;11.30;79.70
1091;DHT22;534;48.704;9.122;2023-04-15T18:07:12;11.30;80.20
1091;DHT22;534;48.704;9.122;2023-04-15T18:09:38;11.30;80.40
1091;DHT22;534;48.704;9.122;2023-04-15T18:12:06;11.30;80.30
1091;DHT22;534;48.704;9.122;2023-04-15T18:14:33;11.30;80.50
1091;DHT22;534;48.704;9.122;2023-04-15T18:17:00;11.20;80.30
1091;DHT22;534;48.704;9.122;2023-04-15T18:19:28;11.20;80.40
1091;DHT22;534;48.704;9.122;2023-04-15T18:21:56;11.20;80.40
1091;DHT22;534;48.704;9.122;2023-04-15T18:24:24;11.20;80.70
1091;DHT22;534;48.704;9.122;2023-04-15T18:26:51;11.10;80.50
1091;DHT22;534;48.704;9.122;2023-04-15T18:29:18;10.90;81.40
1091;DHT22;534;48.704;9.122;2023-04-15T18:31:44;10.80;81.90
1091;DHT22;534;48.704;9.122;2023-04-15T18:34:11;10.80;82.20
1091;DHT22;534;48.704;9.122;2023-04-15T18:36:38;10.80;82.20
1091;DHT22;534;48.704;9.122;2023-04-15T18:39:06;10.70;82.50
1091;DHT22;534;48.704;9.122;2023-04-15T18:41:33;10.60;82.50
1091;DHT22;534;48.704;9.122;2023-04-15T18:43:59;10.40;82.70
1091;DHT22;534;48.704;9.122;2023-04-15T18:46:27;10.40;83.30
1091;DHT22;534;48.704;9.122;2023-04-15T18:48:53;10.30;83.50
1091;DHT22;534;48.704;9.122;2023-04-15T18:51:20;10.40;84.00
1091;DHT22;534;48.704;9.122;2023-04-15T18:53:47;10.50;83.50
1091;DHT22;534;48.704;9.122;2023-04-15T18:56:15;10.50;83.90
1091;DHT22;534;48.704;9.122;2023-04-15T18:58:42;10.70;83.40
1091;DHT22;534;48.704;9.122;2023-04-15T19:01:08;10.70;83.50
1091;DHT22;534;48.704;9.122;2023-04-15T19:03:35;10.70;83.10
1091;DHT22;534;48.704;9.122;2023-04-15T19:06:02;10.70;83.50
1091;DHT22;534;48.704;9.122;2023-04-15T19:08:29;10.60;83.90
1091;DHT22;534;48.704;9.122;2023-04-15T19:10:56;10.40;84.10
1091;DHT22;534;48.704;9.122;2023-04-15T19:13:24;10.40;84.50
1091;DHT22;534;48.704;9.122;2023-04-15T19:15:51;10.40;84.50
1091;DHT22;534;48.704;9.122;2023-04-15T19:18:17;10.40;84.20
1091;DHT22;534;48.704;9.122;2023-04-15T19:20:44;10.50;84.10
1091;DHT22;534;48.704;9.122;2023-04-15T19:23:11;10.30;84.20
1091;DHT22;534;48.704;9.122;2023-04-15T19:25:38;10.20;84.40
1091;DHT22;534;48.704;9.122;2023-04-15T19:28:05;10.10;85.00
1091;DHT22;534;48.704;9.122;2023-04-15T19:30:33;10.20;85.10
1091;DHT22;534;48.704;9.122;2023-04-15T19:32:59;10.20;85.10
1091;DHT22;534;48.704;9.122;2023-04-15T19:35:26;10.20;84.70
1091;DHT22;534;48.704;9.122;2023-04-15T19:37:53;10.10;85.20
1091;DHT22;534;48.704;9.122;2023-04-15T19:40:20;10.20;85.50
1091;DHT22;534;48.704;9.122;2023-04-15T19:42:47;10.30;85.00
1091;DHT22;534;48.704;9.122;2023-04-15T19:45:13;10.30;85.00
1091;DHT22;534;48.704;9.122;2023-04-15T19:47:42;10.40;84.80
1091;DHT22;534;48.704;9.122;2023-04-15T19:50:09;10.30;84.70
1091;DHT22;534;48.704;9.122;2023-04-15T19:52:37;10.20;84.90
1091;DHT22;534;48.704;9.122;2023-04-15T19:55:04;10.20;84.90
1091;DHT22;534;48.704;9.122;2023-04-15T19:57:30;10.20;84.90
1091;DHT22;534;48.704;9.122;2023-04-15T19:59:58;10.00;85.50
1091;DHT22;534;48.704;9.122;2023-04-15T20:02:25;10.00;85.60
1091;DHT22;534;48.704;9.122;2023-04-15T20:04:53;10.10;85.70
1091;DHT22;534;48.704;9.122;2023-04-15T20:07:19;10.00;85.70
1091;DHT22;534;48.704;9.122;2023-04-15T20:09:46;10.00;85.90
1091;DHT22;534;48.704;9.122;2023-04-15T20:12:13;10.00;86.00
1091;DHT22;534;48.704;9.122;2023-04-15T20:14:40;10.00;85.80
1091;DHT22;534;48.704;9.122;2023-04-15T20:17:06;9.90;85.90
1091;DHT22;534;48.704;9.122;2023-04-15T20:19:33;9.90;86.20
1091;DHT22;534;48.704;9.122;2023-04-15T20:22:01;9.90;86.40
1091;DHT22;534;48.704;9.122;2023-04-15T20:24:28;9.80;86.70